Darstellungsparameter: Aktuell verwendete Einstellungen:
Skalierung der Graphiken ... ?
xyx+y,   Skalierungsfaktor:      Skalierung: Modus: x, Faktor: 1
Darstellungszeitraum ... ?
Vom - - bis: - -   Zeitraum: 07.02.2021 - 07.02.2021
Min/Max/Avg-Anzeige ... ?
Zeige MMA aktuell
Zeige MMA Monat
Zeige MMA alles
Zeige --A aktuell
Zeige --A Monat
Zeige --A alles
Keine MMA-Anzeige
MMA:
Minimum Maximum Average (ber die Originaldaten)
MMA-Basis: 23.03.2019 - 25.04.2019
Quicknavigation für Darstellung... ?
Tage:      1T, 2T, 3T, 5T -1T -2T -3T -5T +1T +2T +3T +5T
Wochen: 1W, 2W, 3W -1W -2W -3W +1W +2W +3W
Monate: 1M, 3M, 6M -1M -3M -6M +1M +3M +6M
Jahre:    1J, 3J, 5J, 10J -1J -3J -5J -10J +1J +3J +5J +10J
Nutze für die Darstellung ... ?
Originaldaten oder Mittelwerte auf ...
Stundenbasis Tagesbasis Wochenbasis
Monatsbasis Jahresbasis      Datenbasis: Original-Daten
Darstellen als:
Statistik (Auto) Statistik J:M      Darstellung:
Zur Graphik,    zurück zur Übersicht aller Sensoren.
 
Tabellarische Datenbersicht: ?
 
Sensor: Nr:Datum:Temp:Abs-Feuchte:Windchill:Wind:
Aussen-T/F 1 07-02-2021 00:00:00 2.3 C 5.39 g/m*3 -1.49 C 14.5 km/h
2 07-02-2021 00:05:00 2.3 C 5.39 g/m*3 -2.66 C 22.5 km/h
3 07-02-2021 00:10:00 2.3 C 5.39 g/m*3 -1.49 C 14.5 km/h
4 07-02-2021 00:15:00 2.3 C 5.39 g/m*3 -2.24 C 19.3 km/h
5 07-02-2021 00:20:00 2.3 C 5.39 g/m*3 -2.24 C 19.3 km/h
6 07-02-2021 00:25:00 2.3 C 5.39 g/m*3 -2.24 C 19.3 km/h
7 07-02-2021 00:30:00 2.3 C 5.39 g/m*3 -2.01 C 17.7 km/h
8 07-02-2021 00:35:00 2.3 C 5.39 g/m*3 -1.76 C 16.1 km/h
9 07-02-2021 00:40:00 2.3 C 5.39 g/m*3 -0.87 C 11.3 km/h
10 07-02-2021 00:45:00 2.4 C 5.42 g/m*3 0.05 C 8.1 km/h
11 07-02-2021 00:50:00 2.4 C 5.42 g/m*3 -1.64 C 16.1 km/h
12 07-02-2021 00:55:00 2.4 C 5.42 g/m*3 -1.07 C 12.9 km/h
13 07-02-2021 01:00:00 2.4 C 5.42 g/m*3 -1.89 C 17.7 km/h
14 07-02-2021 01:05:00 2.4 C 5.42 g/m*3 -1.64 C 16.1 km/h
15 07-02-2021 01:10:00 2.4 C 5.42 g/m*3 -1.64 C 16.1 km/h
16 07-02-2021 01:15:00 2.4 C 5.42 g/m*3 -1.64 C 16.1 km/h
17 07-02-2021 01:20:00 2.4 C 5.42 g/m*3 -1.37 C 14.5 km/h
18 07-02-2021 01:25:00 2.4 C 5.42 g/m*3 -1.07 C 12.9 km/h
19 07-02-2021 01:30:00 2.4 C 5.42 g/m*3 0.05 C 8.1 km/h
20 07-02-2021 01:35:00 2.4 C 5.42 g/m*3 -0.74 C 11.3 km/h
21 07-02-2021 01:40:00 2.4 C 5.42 g/m*3 2.4 C 4.8 km/h
22 07-02-2021 01:45:00 2.4 C 5.42 g/m*3 -0.74 C 11.3 km/h
23 07-02-2021 01:50:00 2.4 C 5.42 g/m*3 -1.07 C 12.9 km/h
24 07-02-2021 01:55:00 2.4 C 5.42 g/m*3 -0.74 C 11.3 km/h
25 07-02-2021 02:00:00 2.4 C 5.42 g/m*3 -0.74 C 11.3 km/h
Sensor: Nr:Datum:Temp:Abs-Feuchte:Windchill:Wind:
Aussen-T/F 26 07-02-2021 02:05:00 2.4 C 5.42 g/m*3 -1.64 C 16.1 km/h
27 07-02-2021 02:10:00 2.3 C 5.39 g/m*3 -1.76 C 16.1 km/h
28 07-02-2021 02:15:00 2.4 C 5.42 g/m*3 0.59 C 6.4 km/h
29 07-02-2021 02:20:00 2.3 C 5.39 g/m*3 2.3 C 3.2 km/h
30 07-02-2021 02:25:00 2.3 C 5.39 g/m*3 2.3 C 3.2 km/h
31 07-02-2021 02:30:00 2.3 C 5.39 g/m*3 0.47 C 6.4 km/h
32 07-02-2021 02:35:00 2.3 C 5.39 g/m*3 2.3 C 4.8 km/h
33 07-02-2021 02:40:00 2.3 C 5.39 g/m*3 0.47 C 6.4 km/h
34 07-02-2021 02:45:00 2.3 C 5.39 g/m*3 2.3 C 4.8 km/h
35 07-02-2021 02:50:00 2.3 C 5.39 g/m*3 -1.2 C 12.9 km/h
36 07-02-2021 02:55:00 2.3 C 5.39 g/m*3 -0.07 C 8.1 km/h
37 07-02-2021 03:00:00 2.3 C 5.39 g/m*3 -0.87 C 11.3 km/h
38 07-02-2021 03:05:00 2.2 C 5.35 g/m*3 -0.99 C 11.3 km/h
39 07-02-2021 03:10:00 2.2 C 5.35 g/m*3 -0.61 C 9.7 km/h
40 07-02-2021 03:15:00 2.2 C 5.35 g/m*3 -0.99 C 11.3 km/h
41 07-02-2021 03:20:00 2.2 C 5.35 g/m*3 -0.61 C 9.7 km/h
42 07-02-2021 03:25:00 2.2 C 5.35 g/m*3 -0.99 C 11.3 km/h
43 07-02-2021 03:30:00 2.1 C 5.31 g/m*3 -0.73 C 9.7 km/h
44 07-02-2021 03:35:00 2.1 C 5.31 g/m*3 2.1 C 4.8 km/h
45 07-02-2021 03:40:00 2.1 C 5.31 g/m*3 -1.11 C 11.3 km/h
46 07-02-2021 03:45:00 2 C 5.28 g/m*3 -1.23 C 11.3 km/h
47 07-02-2021 03:50:00 2 C 5.28 g/m*3 -0.42 C 8.1 km/h
48 07-02-2021 03:55:00 2 C 5.28 g/m*3 2 C 4.8 km/h
49 07-02-2021 04:00:00 2 C 5.28 g/m*3 -0.85 C 9.7 km/h
50 07-02-2021 04:05:00 2 C 5.28 g/m*3 -1.56 C 12.9 km/h
Sensor: Nr:Datum:Temp:Abs-Feuchte:Windchill:Wind:
Aussen-T/F 51 07-02-2021 04:10:00 2 C 5.28 g/m*3 -0.85 C 9.7 km/h
52 07-02-2021 04:15:00 2 C 5.33 g/m*3 -1.23 C 11.3 km/h
53 07-02-2021 04:20:00 2 C 5.33 g/m*3 -1.23 C 11.3 km/h
54 07-02-2021 04:25:00 1.9 C 5.3 g/m*3 -1.98 C 14.5 km/h
55 07-02-2021 04:30:00 1.9 C 5.3 g/m*3 -1.35 C 11.3 km/h
56 07-02-2021 04:35:00 1.9 C 5.3 g/m*3 -0.97 C 9.7 km/h
57 07-02-2021 04:40:00 1.9 C 5.3 g/m*3 0.01 C 6.4 km/h
58 07-02-2021 04:45:00 2 C 5.33 g/m*3 0.13 C 6.4 km/h
59 07-02-2021 04:50:00 2 C 5.33 g/m*3 -1.86 C 14.5 km/h
60 07-02-2021 04:55:00 2 C 5.33 g/m*3 -1.23 C 11.3 km/h
61 07-02-2021 05:00:00 2 C 5.33 g/m*3 0.13 C 6.4 km/h
62 07-02-2021 05:05:00 2 C 5.33 g/m*3 -1.86 C 14.5 km/h
63 07-02-2021 05:10:00 2 C 5.33 g/m*3 2 C 4.8 km/h
64 07-02-2021 05:15:00 2 C 5.33 g/m*3 -2.14 C 16.1 km/h
65 07-02-2021 05:20:00 2 C 5.33 g/m*3 0.13 C 6.4 km/h
66 07-02-2021 05:25:00 2 C 5.33 g/m*3 0.13 C 6.4 km/h
67 07-02-2021 05:30:00 2.1 C 5.37 g/m*3 2.1 C 3.2 km/h
68 07-02-2021 05:35:00 2 C 5.33 g/m*3 2 C 3.2 km/h
69 07-02-2021 05:40:00 2.1 C 5.37 g/m*3 2.1 C 4.8 km/h
70 07-02-2021 05:45:00 2.1 C 5.37 g/m*3 2.1 C 1.6 km/h
71 07-02-2021 05:50:00 2 C 5.33 g/m*3 2 C 4.8 km/h
72 07-02-2021 05:55:00 2 C 5.33 g/m*3 2 C 0 km/h
73 07-02-2021 06:00:00 2 C 5.33 g/m*3 2 C 0 km/h
74 07-02-2021 06:05:00 2 C 5.33 g/m*3 2 C 3.2 km/h
75 07-02-2021 06:10:00 2 C 5.33 g/m*3 0.13 C 6.4 km/h
Sensor: Nr:Datum:Temp:Abs-Feuchte:Windchill:Wind:
Aussen-T/F 76 07-02-2021 06:15:00 2 C 5.33 g/m*3 2 C 1.6 km/h
77 07-02-2021 06:20:00 2 C 5.33 g/m*3 0.13 C 6.4 km/h
78 07-02-2021 06:25:00 2 C 5.33 g/m*3 0.13 C 6.4 km/h
79 07-02-2021 06:30:00 2 C 5.33 g/m*3 0.13 C 6.4 km/h
80 07-02-2021 06:35:00 2 C 5.33 g/m*3 -0.85 C 9.7 km/h
81 07-02-2021 06:40:00 2 C 5.33 g/m*3 -1.23 C 11.3 km/h
82 07-02-2021 06:45:00 2 C 5.33 g/m*3 -0.85 C 9.7 km/h
83 07-02-2021 06:50:00 2 C 5.33 g/m*3 0.13 C 6.4 km/h
84 07-02-2021 06:55:00 2 C 5.33 g/m*3 2 C 3.2 km/h
85 07-02-2021 07:00:00 2 C 5.33 g/m*3 -1.23 C 11.3 km/h
86 07-02-2021 07:05:00 2 C 5.33 g/m*3 0.13 C 6.4 km/h
87 07-02-2021 07:10:00 1.9 C 5.3 g/m*3 0.01 C 6.4 km/h
88 07-02-2021 07:15:00 2 C 5.33 g/m*3 2 C 1.6 km/h
89 07-02-2021 07:20:00 1.9 C 5.3 g/m*3 1.9 C 4.8 km/h
90 07-02-2021 07:25:00 1.9 C 5.3 g/m*3 1.9 C 3.2 km/h
91 07-02-2021 07:30:00 2 C 5.33 g/m*3 2 C 4.8 km/h
92 07-02-2021 07:35:00 2 C 5.33 g/m*3 2 C 4.8 km/h
93 07-02-2021 07:40:00 1.9 C 5.3 g/m*3 1.9 C 1.6 km/h
94 07-02-2021 07:45:00 1.9 C 5.3 g/m*3 1.9 C 4.8 km/h
95 07-02-2021 07:50:00 1.9 C 5.3 g/m*3 -0.54 C 8.1 km/h
96 07-02-2021 07:55:00 1.9 C 5.3 g/m*3 1.9 C 3.2 km/h
97 07-02-2021 08:00:00 1.9 C 5.3 g/m*3 1.9 C 1.6 km/h
98 07-02-2021 08:05:00 1.9 C 5.3 g/m*3 0.01 C 6.4 km/h
99 07-02-2021 08:10:00 1.8 C 5.26 g/m*3 1.8 C 4.8 km/h
100 07-02-2021 08:15:00 1.8 C 5.26 g/m*3 -0.65 C 8.1 km/h
Sensor: Nr:Datum:Temp:Abs-Feuchte:Windchill:Wind:
Aussen-T/F 101 07-02-2021 08:20:00 1.8 C 5.26 g/m*3 -2.11 C 14.5 km/h
102 07-02-2021 08:25:00 1.7 C 5.23 g/m*3 -1.21 C 9.7 km/h
103 07-02-2021 08:30:00 1.7 C 5.23 g/m*3 -1.59 C 11.3 km/h
104 07-02-2021 08:35:00 1.7 C 5.23 g/m*3 -0.22 C 6.4 km/h
105 07-02-2021 08:40:00 1.7 C 5.23 g/m*3 -1.59 C 11.3 km/h
106 07-02-2021 08:45:00 1.7 C 5.23 g/m*3 -2.23 C 14.5 km/h
107 07-02-2021 08:50:00 1.7 C 5.23 g/m*3 -1.21 C 9.7 km/h
108 07-02-2021 08:55:00 1.7 C 5.23 g/m*3 -2.23 C 14.5 km/h
109 07-02-2021 09:00:00 1.7 C 5.23 g/m*3 1.7 C 4.8 km/h
110 07-02-2021 09:05:00 1.7 C 5.23 g/m*3 -0.22 C 6.4 km/h
111 07-02-2021 09:10:00 1.7 C 5.23 g/m*3 -0.77 C 8.1 km/h
112 07-02-2021 09:15:00 1.7 C 5.23 g/m*3 -0.77 C 8.1 km/h
113 07-02-2021 09:20:00 1.7 C 5.23 g/m*3 1.7 C 1.6 km/h
114 07-02-2021 09:25:00 1.7 C 5.23 g/m*3 1.7 C 3.2 km/h
115 07-02-2021 09:30:00 1.7 C 5.23 g/m*3 -1.21 C 9.7 km/h
116 07-02-2021 09:35:00 1.7 C 5.23 g/m*3 1.7 C 0 km/h
117 07-02-2021 09:40:00 1.7 C 5.23 g/m*3 1.7 C 4.8 km/h
118 07-02-2021 09:45:00 1.7 C 5.23 g/m*3 1.7 C 4.8 km/h
119 07-02-2021 09:50:00 1.7 C 5.23 g/m*3 -1.21 C 9.7 km/h
120 07-02-2021 09:55:00 1.7 C 5.23 g/m*3 1.7 C 4.8 km/h
121 07-02-2021 10:00:00 1.7 C 5.23 g/m*3 -0.22 C 6.4 km/h
122 07-02-2021 10:05:00 1.7 C 5.23 g/m*3 1.7 C 1.6 km/h
123 07-02-2021 10:10:00 1.7 C 5.23 g/m*3 1.7 C 4.8 km/h
124 07-02-2021 10:15:00 1.7 C 5.23 g/m*3 -0.22 C 6.4 km/h
125 07-02-2021 10:20:00 1.7 C 5.23 g/m*3 1.7 C 3.2 km/h
Sensor: Nr:Datum:Temp:Abs-Feuchte:Windchill:Wind:
Aussen-T/F 126 07-02-2021 10:25:00 1.7 C 5.23 g/m*3 -0.22 C 6.4 km/h
127 07-02-2021 10:30:00 1.7 C 5.23 g/m*3 -0.22 C 6.4 km/h
128 07-02-2021 10:35:00 1.7 C 5.23 g/m*3 -0.22 C 6.4 km/h
129 07-02-2021 10:40:00 1.8 C 5.26 g/m*3 1.8 C 3.2 km/h
130 07-02-2021 10:45:00 1.8 C 5.26 g/m*3 1.8 C 1.6 km/h
131 07-02-2021 10:50:00 1.8 C 5.26 g/m*3 1.8 C 4.8 km/h
132 07-02-2021 10:55:00 1.8 C 5.26 g/m*3 -1.47 C 11.3 km/h
133 07-02-2021 11:00:00 1.8 C 5.26 g/m*3 -1.09 C 9.7 km/h
134 07-02-2021 11:05:00 1.8 C 5.26 g/m*3 -0.1 C 6.4 km/h
135 07-02-2021 11:10:00 1.8 C 5.26 g/m*3 -1.09 C 9.7 km/h
136 07-02-2021 11:15:00 1.8 C 5.26 g/m*3 -0.1 C 6.4 km/h
137 07-02-2021 11:20:00 1.7 C 5.23 g/m*3 -1.59 C 11.3 km/h
138 07-02-2021 11:25:00 1.7 C 5.23 g/m*3 1.7 C 3.2 km/h
139 07-02-2021 11:30:00 1.8 C 5.26 g/m*3 1.8 C 3.2 km/h
140 07-02-2021 11:35:00 1.8 C 5.26 g/m*3 1.8 C 4.8 km/h
141 07-02-2021 11:40:00 1.9 C 5.3 g/m*3 1.9 C 4.8 km/h
142 07-02-2021 11:45:00 1.9 C 5.3 g/m*3 1.9 C 4.8 km/h
143 07-02-2021 11:50:00 1.9 C 5.3 g/m*3 1.9 C 3.2 km/h
144 07-02-2021 11:55:00 1.9 C 5.3 g/m*3 1.9 C 4.8 km/h
145 07-02-2021 12:00:00 1.9 C 5.3 g/m*3 1.9 C 4.8 km/h
146 07-02-2021 12:05:00 1.9 C 5.3 g/m*3 1.9 C 4.8 km/h
147 07-02-2021 12:10:00 1.8 C 5.21 g/m*3 -0.1 C 6.4 km/h
148 07-02-2021 12:15:00 1.7 C 5.17 g/m*3 1.7 C 4.8 km/h
149 07-02-2021 12:20:00 1.7 C 5.17 g/m*3 -0.77 C 8.1 km/h
150 07-02-2021 12:25:00 1.6 C 5.14 g/m*3 1.6 C 1.6 km/h
Sensor: Nr:Datum:Temp:Abs-Feuchte:Windchill:Wind:
Aussen-T/F 151 07-02-2021 12:30:00 1.6 C 5.19 g/m*3 1.6 C 4.8 km/h
152 07-02-2021 12:35:00 1.6 C 5.19 g/m*3 1.6 C 1.6 km/h
153 07-02-2021 12:40:00 1.6 C 5.19 g/m*3 1.6 C 4.8 km/h
154 07-02-2021 12:45:00 1.6 C 5.14 g/m*3 -0.33 C 6.4 km/h
155 07-02-2021 12:50:00 1.5 C 5.1 g/m*3 1.5 C 4.8 km/h
156 07-02-2021 12:55:00 1.5 C 5.1 g/m*3 1.5 C 1.6 km/h
157 07-02-2021 13:00:00 1.5 C 5.1 g/m*3 1.5 C 4.8 km/h
158 07-02-2021 13:05:00 1.4 C 5.07 g/m*3 -1.12 C 8.1 km/h
159 07-02-2021 13:10:00 1.4 C 5.07 g/m*3 -0.56 C 6.4 km/h
160 07-02-2021 13:15:00 1.4 C 5.07 g/m*3 1.4 C 4.8 km/h
161 07-02-2021 13:20:00 1.3 C 5.03 g/m*3 -0.68 C 6.4 km/h
162 07-02-2021 13:25:00 1.2 C 5 g/m*3 -1.36 C 8.1 km/h
163 07-02-2021 13:30:00 1.2 C 5 g/m*3 1.2 C 0 km/h
164 07-02-2021 13:35:00 1.2 C 5.05 g/m*3 -1.36 C 8.1 km/h
165 07-02-2021 13:40:00 1.2 C 5 g/m*3 1.2 C 1.6 km/h
166 07-02-2021 13:45:00 1.2 C 5 g/m*3 1.2 C 3.2 km/h
167 07-02-2021 13:50:00 1.2 C 5.05 g/m*3 -1.36 C 8.1 km/h
168 07-02-2021 13:55:00 1.1 C 4.96 g/m*3 -0.91 C 6.4 km/h
169 07-02-2021 14:00:00 1.1 C 4.96 g/m*3 1.1 C 4.8 km/h
170 07-02-2021 14:05:00 1.1 C 5.02 g/m*3 1.1 C 4.8 km/h
171 07-02-2021 14:10:00 1.2 C 5.05 g/m*3 1.2 C 3.2 km/h
172 07-02-2021 14:15:00 1.2 C 5.05 g/m*3 1.2 C 3.2 km/h
173 07-02-2021 14:20:00 1.2 C 5.05 g/m*3 -0.8 C 6.4 km/h
174 07-02-2021 14:25:00 1.2 C 5.05 g/m*3 -1.36 C 8.1 km/h
175 07-02-2021 14:30:00 1.2 C 5.05 g/m*3 1.2 C 3.2 km/h
Sensor: Nr:Datum:Temp:Abs-Feuchte:Windchill:Wind:
Aussen-T/F 176 07-02-2021 14:35:00 1.1 C 4.96 g/m*3 1.1 C 3.2 km/h
177 07-02-2021 14:40:00 1.1 C 4.96 g/m*3 1.1 C 1.6 km/h
178 07-02-2021 14:45:00 1.1 C 4.96 g/m*3 1.1 C 1.6 km/h
179 07-02-2021 14:50:00 1.1 C 4.96 g/m*3 1.1 C 4.8 km/h
180 07-02-2021 14:55:00 1.1 C 4.96 g/m*3 1.1 C 3.2 km/h
181 07-02-2021 15:00:00 1.1 C 4.96 g/m*3 1.1 C 1.6 km/h
182 07-02-2021 15:05:00 1 C 4.93 g/m*3 -1.03 C 6.4 km/h
183 07-02-2021 15:10:00 1 C 4.93 g/m*3 1 C 1.6 km/h
184 07-02-2021 15:15:00 1 C 4.93 g/m*3 1 C 0 km/h
185 07-02-2021 15:20:00 1 C 4.93 g/m*3 1 C 3.2 km/h
186 07-02-2021 15:25:00 1 C 4.93 g/m*3 1 C 1.6 km/h
187 07-02-2021 15:30:00 1 C 4.93 g/m*3 1 C 3.2 km/h
188 07-02-2021 15:35:00 1 C 4.93 g/m*3 1 C 3.2 km/h
189 07-02-2021 15:40:00 0.9 C 4.9 g/m*3 0.9 C 0 km/h
190 07-02-2021 15:45:00 1 C 4.93 g/m*3 1 C 3.2 km/h
191 07-02-2021 15:50:00 1 C 4.93 g/m*3 1 C 3.2 km/h
192 07-02-2021 15:55:00 0.9 C 4.9 g/m*3 0.9 C 4.8 km/h
193 07-02-2021 16:00:00 0.9 C 4.9 g/m*3 0.9 C 3.2 km/h
194 07-02-2021 16:05:00 0.9 C 4.9 g/m*3 0.9 C 1.6 km/h
195 07-02-2021 16:10:00 0.9 C 4.9 g/m*3 0.9 C 0 km/h
196 07-02-2021 16:15:00 0.9 C 4.9 g/m*3 0.9 C 0 km/h
197 07-02-2021 16:20:00 0.9 C 4.9 g/m*3 0.9 C 4.8 km/h
198 07-02-2021 16:25:00 0.8 C 4.86 g/m*3 0.8 C 4.8 km/h
199 07-02-2021 16:30:00 0.8 C 4.86 g/m*3 0.8 C 3.2 km/h
200 07-02-2021 16:35:00 0.7 C 4.83 g/m*3 0.7 C 3.2 km/h
Sensor: Nr:Datum:Temp:Abs-Feuchte:Windchill:Wind:
Aussen-T/F 201 07-02-2021 16:40:00 0.7 C 4.83 g/m*3 0.7 C 3.2 km/h
202 07-02-2021 16:45:00 0.8 C 4.86 g/m*3 0.8 C 0 km/h
203 07-02-2021 16:50:00 0.8 C 4.86 g/m*3 0.8 C 3.2 km/h
204 07-02-2021 16:55:00 0.8 C 4.86 g/m*3 0.8 C 1.6 km/h
205 07-02-2021 17:00:00 0.8 C 4.86 g/m*3 0.8 C 3.2 km/h
206 07-02-2021 17:05:00 0.8 C 4.86 g/m*3 0.8 C 4.8 km/h
207 07-02-2021 17:10:00 0.7 C 4.83 g/m*3 0.7 C 3.2 km/h
208 07-02-2021 17:15:00 0.7 C 4.83 g/m*3 0.7 C 4.8 km/h
209 07-02-2021 17:20:00 0.6 C 4.8 g/m*3 0.6 C 3.2 km/h
210 07-02-2021 17:25:00 0.6 C 4.8 g/m*3 -2.52 C 9.7 km/h
211 07-02-2021 17:30:00 0.5 C 4.76 g/m*3 -1.6 C 6.4 km/h
212 07-02-2021 17:35:00 0.5 C 4.76 g/m*3 0.5 C 3.2 km/h
213 07-02-2021 17:40:00 0.5 C 4.76 g/m*3 -1.6 C 6.4 km/h
214 07-02-2021 17:45:00 0.4 C 4.73 g/m*3 0.4 C 1.6 km/h
215 07-02-2021 17:50:00 0.4 C 4.73 g/m*3 -1.72 C 6.4 km/h
216 07-02-2021 17:55:00 0.4 C 4.73 g/m*3 -2.3 C 8.1 km/h
217 07-02-2021 18:00:00 0.3 C 4.7 g/m*3 -2.88 C 9.7 km/h
218 07-02-2021 18:05:00 0.3 C 4.7 g/m*3 0.3 C 3.2 km/h
219 07-02-2021 18:10:00 0.3 C 4.7 g/m*3 -2.42 C 8.1 km/h
220 07-02-2021 18:15:00 0.3 C 4.7 g/m*3 0.3 C 3.2 km/h
221 07-02-2021 18:20:00 0.3 C 4.7 g/m*3 -1.84 C 6.4 km/h
222 07-02-2021 18:25:00 0.3 C 4.7 g/m*3 0.3 C 3.2 km/h
223 07-02-2021 18:30:00 0.2 C 4.67 g/m*3 -1.95 C 6.4 km/h
224 07-02-2021 18:35:00 0.2 C 4.67 g/m*3 0.2 C 3.2 km/h
225 07-02-2021 18:40:00 0.2 C 4.67 g/m*3 0.2 C 3.2 km/h
Sensor: Nr:Datum:Temp:Abs-Feuchte:Windchill:Wind:
Aussen-T/F 226 07-02-2021 18:45:00 0.2 C 4.67 g/m*3 -1.95 C 6.4 km/h
227 07-02-2021 18:50:00 0.2 C 4.67 g/m*3 0.2 C 4.8 km/h
228 07-02-2021 18:55:00 0.1 C 4.63 g/m*3 0.1 C 3.2 km/h
229 07-02-2021 19:00:00 0.1 C 4.63 g/m*3 0.1 C 4.8 km/h
230 07-02-2021 19:05:00 0.1 C 4.63 g/m*3 0.1 C 0 km/h
231 07-02-2021 19:10:00 0.1 C 4.63 g/m*3 0.1 C 4.8 km/h
232 07-02-2021 19:15:00 0.1 C 4.63 g/m*3 0.1 C 1.6 km/h
233 07-02-2021 19:20:00 0.1 C 4.59 g/m*3 0.1 C 1.6 km/h
234 07-02-2021 19:25:00 0 C 4.55 g/m*3 0 C 4.8 km/h
235 07-02-2021 19:30:00 0 C 4.55 g/m*3 0 C 4.8 km/h
236 07-02-2021 19:35:00 0 C 4.55 g/m*3 -2.77 C 8.1 km/h
237 07-02-2021 19:40:00 -0.1 C 4.52 g/m*3 -2.89 C 8.1 km/h
238 07-02-2021 19:45:00 -0.1 C 4.52 g/m*3 -2.89 C 8.1 km/h
239 07-02-2021 19:50:00 -0.1 C 4.52 g/m*3 -0.1 C 4.8 km/h
240 07-02-2021 19:55:00 -0.1 C 4.52 g/m*3 -2.3 C 6.4 km/h
241 07-02-2021 20:00:00 -0.2 C 4.49 g/m*3 -3.47 C 9.7 km/h
242 07-02-2021 20:05:00 -0.2 C 4.49 g/m*3 -0.2 C 4.8 km/h
243 07-02-2021 20:10:00 -0.3 C 4.46 g/m*3 -2.53 C 6.4 km/h
244 07-02-2021 20:15:00 -0.3 C 4.46 g/m*3 -0.3 C 3.2 km/h
245 07-02-2021 20:20:00 -0.3 C 4.46 g/m*3 -0.3 C 1.6 km/h
246 07-02-2021 20:25:00 -0.3 C 4.46 g/m*3 -2.53 C 6.4 km/h
247 07-02-2021 20:30:00 -0.4 C 4.43 g/m*3 -4.12 C 11.3 km/h
248 07-02-2021 20:35:00 -0.3 C 4.46 g/m*3 -0.3 C 3.2 km/h
249 07-02-2021 20:40:00 -0.4 C 4.43 g/m*3 -3.24 C 8.1 km/h
250 07-02-2021 20:45:00 -0.4 C 4.43 g/m*3 -2.64 C 6.4 km/h
Sensor: Nr:Datum:Temp:Abs-Feuchte:Windchill:Wind:
Aussen-T/F 251 07-02-2021 20:50:00 -0.5 C 4.4 g/m*3 -2.76 C 6.4 km/h
252 07-02-2021 20:55:00 -0.6 C 4.37 g/m*3 -3.95 C 9.7 km/h
253 07-02-2021 21:00:00 -0.6 C 4.32 g/m*3 -4.36 C 11.3 km/h
254 07-02-2021 21:05:00 -0.6 C 4.37 g/m*3 -0.6 C 1.6 km/h
255 07-02-2021 21:10:00 -0.7 C 4.34 g/m*3 -4.07 C 9.7 km/h
256 07-02-2021 21:15:00 -0.7 C 4.34 g/m*3 -3.59 C 8.1 km/h
257 07-02-2021 21:20:00 -0.7 C 4.34 g/m*3 -4.07 C 9.7 km/h
258 07-02-2021 21:25:00 -0.8 C 4.26 g/m*3 -0.8 C 4.8 km/h
259 07-02-2021 21:30:00 -0.8 C 4.26 g/m*3 -3.11 C 6.4 km/h
260 07-02-2021 21:35:00 -0.9 C 4.23 g/m*3 -3.83 C 8.1 km/h
261 07-02-2021 21:40:00 -0.9 C 4.23 g/m*3 -0.9 C 1.6 km/h
262 07-02-2021 21:45:00 -0.9 C 4.23 g/m*3 -0.9 C 4.8 km/h
263 07-02-2021 21:50:00 -1 C 4.2 g/m*3 -4.85 C 11.3 km/h
264 07-02-2021 21:55:00 -1.1 C 4.17 g/m*3 -5.67 C 14.5 km/h
265 07-02-2021 22:00:00 -1.1 C 4.17 g/m*3 -3.45 C 6.4 km/h
266 07-02-2021 22:05:00 -1.1 C 4.17 g/m*3 -4.97 C 11.3 km/h
267 07-02-2021 22:10:00 -1.2 C 4.1 g/m*3 -4.66 C 9.7 km/h
268 07-02-2021 22:15:00 -1.3 C 4.12 g/m*3 -4.78 C 9.7 km/h
269 07-02-2021 22:20:00 -1.3 C 4.12 g/m*3 -1.3 C 1.6 km/h
270 07-02-2021 22:25:00 -1.3 C 4.12 g/m*3 -1.3 C 4.8 km/h
271 07-02-2021 22:30:00 -1.4 C 4.09 g/m*3 -4.9 C 9.7 km/h
272 07-02-2021 22:35:00 -1.4 C 4.09 g/m*3 -4.9 C 9.7 km/h
273 07-02-2021 22:40:00 -1.4 C 4.09 g/m*3 -4.42 C 8.1 km/h
274 07-02-2021 22:45:00 -1.5 C 4.06 g/m*3 -3.91 C 6.4 km/h
275 07-02-2021 22:50:00 -1.5 C 4.06 g/m*3 -5.45 C 11.3 km/h
Sensor: Nr:Datum:Temp:Abs-Feuchte:Windchill:Wind:
Aussen-T/F 276 07-02-2021 22:55:00 -1.6 C 3.99 g/m*3 -4.65 C 8.1 km/h
277 07-02-2021 23:00:00 -1.6 C 4.03 g/m*3 -4.65 C 8.1 km/h
278 07-02-2021 23:05:00 -1.7 C 4 g/m*3 -4.15 C 6.4 km/h
279 07-02-2021 23:10:00 -1.8 C 3.98 g/m*3 -4.26 C 6.4 km/h
280 07-02-2021 23:15:00 -1.8 C 3.98 g/m*3 -4.26 C 6.4 km/h
281 07-02-2021 23:20:00 -1.8 C 3.98 g/m*3 -1.8 C 4.8 km/h
282 07-02-2021 23:25:00 -1.8 C 3.98 g/m*3 -4.26 C 6.4 km/h
283 07-02-2021 23:30:00 -1.8 C 3.98 g/m*3 -5.81 C 11.3 km/h
284 07-02-2021 23:35:00 -1.9 C 3.95 g/m*3 -1.9 C 3.2 km/h
285 07-02-2021 23:40:00 -1.9 C 3.95 g/m*3 -1.9 C 3.2 km/h
286 07-02-2021 23:45:00 -1.9 C 3.95 g/m*3 -5 C 8.1 km/h
287 07-02-2021 23:50:00 -1.9 C 3.91 g/m*3 -5.5 C 9.7 km/h
288 07-02-2021 23:55:00 -1.9 C 3.91 g/m*3 -1.9 C 4.8 km/h

Legende:
   Min
   Max


Maximal/Minimal-Werte vom 23.03.2019 - 25.04.2019

Sensor Min Max Avg
Temp
(Aussen-T/F)
0.3 °C
14-04-2019  00:50:00
26.6 °C
24-04-2019  17:05:00
9.96 °C

Die Daten stammen von einer Davis Vantage Pro 2 Wetter-Station und werden unter Linux mit der Software wview2wettercgi und aufbereitet. Alle Angaben erfolgen ohne Gewähr für ihre Vollständigkeit oder Richtigkeit.
Kontakt: Rainer Krienke krienke@uni-koblenz.de . Meine Webseiten an der Uni Koblenz oder privat.
Version: $Revision: 0.78 $